sensor_id;sensor_type;location;lat;lon;timestamp;temperature;humidity
71254;HTU21D;59019;47.638;18.966;2023-05-14T00:00:39;9.70;108.17
71254;HTU21D;59019;47.638;18.966;2023-05-14T00:03:05;9.74;107.35
71254;HTU21D;59019;47.638;18.966;2023-05-14T00:05:30;9.79;107.14
71254;HTU21D;59019;47.638;18.966;2023-05-14T00:07:56;9.83;106.69
71254;HTU21D;59019;47.638;18.966;2023-05-14T00:10:21;9.86;106.35
71254;HTU21D;59019;47.638;18.966;2023-05-14T00:12:47;9.91;105.44
71254;HTU21D;59019;47.638;18.966;2023-05-14T00:15:12;9.94;105.05
71254;HTU21D;59019;47.638;18.966;2023-05-14T00:17:38;9.90;104.97
71254;HTU21D;59019;47.638;18.966;2023-05-14T00:20:04;9.92;104.72
71254;HTU21D;59019;47.638;18.966;2023-05-14T00:22:33;9.90;104.48
71254;HTU21D;59019;47.638;18.966;2023-05-14T00:24:58;9.91;104.44
71254;HTU21D;59019;47.638;18.966;2023-05-14T00:27:24;9.94;103.65
71254;HTU21D;59019;47.638;18.966;2023-05-14T00:29:50;9.98;103.49
71254;HTU21D;59019;47.638;18.966;2023-05-14T00:32:15;9.98;103.26
71254;HTU21D;59019;47.638;18.966;2023-05-14T00:34:41;9.98;103.43
71254;HTU21D;59019;47.638;18.966;2023-05-14T00:37:07;9.93;104.02
71254;HTU21D;59019;47.638;18.966;2023-05-14T00:39:33;9.89;104.73
71254;HTU21D;59019;47.638;18.966;2023-05-14T00:41:58;9.93;104.58
71254;HTU21D;59019;47.638;18.966;2023-05-14T00:44:24;9.94;103.73
71254;HTU21D;59019;47.638;18.966;2023-05-14T00:46:49;10.00;103.50
71254;HTU21D;59019;47.638;18.966;2023-05-14T00:49:15;10.04;103.04
71254;HTU21D;59019;47.638;18.966;2023-05-14T00:51:41;10.05;103.14
71254;HTU21D;59019;47.638;18.966;2023-05-14T00:54:12;10.10;103.11
71254;HTU21D;59019;47.638;18.966;2023-05-14T00:56:38;10.10;102.88
71254;HTU21D;59019;47.638;18.966;2023-05-14T00:59:03;10.15;102.38
71254;HTU21D;59019;47.638;18.966;2023-05-14T01:01:29;10.15;102.30
71254;HTU21D;59019;47.638;18.966;2023-05-14T01:03:55;10.14;102.36
71254;HTU21D;59019;47.638;18.966;2023-05-14T01:06:49;10.18;101.92
71254;HTU21D;59019;47.638;18.966;2023-05-14T01:12:20;10.23;100.92
71254;HTU21D;59019;47.638;18.966;2023-05-14T01:17:15;10.23;100.00
71254;HTU21D;59019;47.638;18.966;2023-05-14T01:19:46;10.22;99.92
71254;HTU21D;59019;47.638;18.966;2023-05-14T01:22:12;10.20;99.77
71254;HTU21D;59019;47.638;18.966;2023-05-14T01:24:38;10.24;99.85
71254;HTU21D;59019;47.638;18.966;2023-05-14T01:30:20;10.22;99.51
71254;HTU21D;59019;47.638;18.966;2023-05-14T01:32:50;10.34;99.01
71254;HTU21D;59019;47.638;18.966;2023-05-14T01:35:16;10.36;98.63
71254;HTU21D;59019;47.638;18.966;2023-05-14T01:37:43;10.35;98.71
71254;HTU21D;59019;47.638;18.966;2023-05-14T01:40:09;10.35;98.90
71254;HTU21D;59019;47.638;18.966;2023-05-14T01:42:36;10.38;99.05
71254;HTU21D;59019;47.638;18.966;2023-05-14T01:45:02;10.39;98.93
71254;HTU21D;59019;47.638;18.966;2023-05-14T01:47:28;10.40;98.66
71254;HTU21D;59019;47.638;18.966;2023-05-14T01:49:53;10.45;98.38
71254;HTU21D;59019;47.638;18.966;2023-05-14T01:52:19;10.53;97.97
71254;HTU21D;59019;47.638;18.966;2023-05-14T01:54:46;10.52;97.78
71254;HTU21D;59019;47.638;18.966;2023-05-14T01:57:12;10.43;97.89
71254;HTU21D;59019;47.638;18.966;2023-05-14T01:59:37;10.46;97.97
71254;HTU21D;59019;47.638;18.966;2023-05-14T02:02:03;10.45;97.46
71254;HTU21D;59019;47.638;18.966;2023-05-14T02:04:29;10.45;97.56
71254;HTU21D;59019;47.638;18.966;2023-05-14T02:06:54;10.54;97.39
71254;HTU21D;59019;47.638;18.966;2023-05-14T02:09:20;10.58;97.56
71254;HTU21D;59019;47.638;18.966;2023-05-14T02:11:45;10.60;97.32
71254;HTU21D;59019;47.638;18.966;2023-05-14T02:14:11;10.57;96.94
71254;HTU21D;59019;47.638;18.966;2023-05-14T02:16:36;10.59;97.15
71254;HTU21D;59019;47.638;18.966;2023-05-14T02:19:02;10.53;97.72
71254;HTU21D;59019;47.638;18.966;2023-05-14T02:21:27;10.51;97.50
71254;HTU21D;59019;47.638;18.966;2023-05-14T02:23:53;10.48;97.45
71254;HTU21D;59019;47.638;18.966;2023-05-14T02:26:18;10.42;97.39
71254;HTU21D;59019;47.638;18.966;2023-05-14T02:28:44;10.46;97.38
71254;HTU21D;59019;47.638;18.966;2023-05-14T02:31:10;10.52;97.05
71254;HTU21D;59019;47.638;18.966;2023-05-14T02:33:35;10.49;97.20
71254;HTU21D;59019;47.638;18.966;2023-05-14T02:36:01;10.51;97.29
71254;HTU21D;59019;47.638;18.966;2023-05-14T02:38:26;10.54;97.10
71254;HTU21D;59019;47.638;18.966;2023-05-14T02:40:52;10.62;96.81
71254;HTU21D;59019;47.638;18.966;2023-05-14T02:43:18;10.58;96.58
71254;HTU21D;59019;47.638;18.966;2023-05-14T02:45:43;10.55;96.62
71254;HTU21D;59019;47.638;18.966;2023-05-14T02:48:09;10.55;96.32
71254;HTU21D;59019;47.638;18.966;2023-05-14T02:50:34;10.55;96.41
71254;HTU21D;59019;47.638;18.966;2023-05-14T02:53:00;10.58;96.46
71254;HTU21D;59019;47.638;18.966;2023-05-14T02:55:26;10.65;96.09
71254;HTU21D;59019;47.638;18.966;2023-05-14T02:57:51;10.60;96.23
71254;HTU21D;59019;47.638;18.966;2023-05-14T03:00:18;10.67;95.96
71254;HTU21D;59019;47.638;18.966;2023-05-14T03:02:43;10.67;96.07
71254;HTU21D;59019;47.638;18.966;2023-05-14T03:05:09;10.72;95.75
71254;HTU21D;59019;47.638;18.966;2023-05-14T03:07:35;10.68;95.96
71254;HTU21D;59019;47.638;18.966;2023-05-14T03:10:00;10.67;96.07
71254;HTU21D;59019;47.638;18.966;2023-05-14T03:12:26;10.68;95.59
71254;HTU21D;59019;47.638;18.966;2023-05-14T03:14:51;10.73;95.55
71254;HTU21D;59019;47.638;18.966;2023-05-14T03:17:17;10.69;95.55
71254;HTU21D;59019;47.638;18.966;2023-05-14T03:19:42;10.74;95.80
71254;HTU21D;59019;47.638;18.966;2023-05-14T03:22:08;10.74;95.77
71254;HTU21D;59019;47.638;18.966;2023-05-14T03:24:33;10.79;95.30
71254;HTU21D;59019;47.638;18.966;2023-05-14T03:26:59;10.80;95.42
71254;HTU21D;59019;47.638;18.966;2023-05-14T03:29:25;10.79;95.35
71254;HTU21D;59019;47.638;18.966;2023-05-14T03:31:50;10.82;95.30
71254;HTU21D;59019;47.638;18.966;2023-05-14T03:34:16;10.84;95.22
71254;HTU21D;59019;47.638;18.966;2023-05-14T03:36:41;10.83;94.91
71254;HTU21D;59019;47.638;18.966;2023-05-14T03:39:07;10.85;95.12
71254;HTU21D;59019;47.638;18.966;2023-05-14T03:41:33;10.89;94.75
71254;HTU21D;59019;47.638;18.966;2023-05-14T03:43:59;10.90;94.83
71254;HTU21D;59019;47.638;18.966;2023-05-14T03:46:24;11.00;94.78
71254;HTU21D;59019;47.638;18.966;2023-05-14T03:48:50;11.10;94.40
71254;HTU21D;59019;47.638;18.966;2023-05-14T03:51:16;11.18;94.51
71254;HTU21D;59019;47.638;18.966;2023-05-14T03:53:41;11.23;94.14
71254;HTU21D;59019;47.638;18.966;2023-05-14T03:56:07;11.22;94.12
71254;HTU21D;59019;47.638;18.966;2023-05-14T03:58:32;11.26;93.57
71254;HTU21D;59019;47.638;18.966;2023-05-14T04:00:58;11.26;93.59
71254;HTU21D;59019;47.638;18.966;2023-05-14T04:03:25;11.24;93.51
71254;HTU21D;59019;47.638;18.966;2023-05-14T04:05:51;11.17;94.01
71254;HTU21D;59019;47.638;18.966;2023-05-14T04:08:16;11.19;93.92
71254;HTU21D;59019;47.638;18.966;2023-05-14T04:10:42;11.10;94.03
71254;HTU21D;59019;47.638;18.966;2023-05-14T04:13:07;10.97;94.18
71254;HTU21D;59019;47.638;18.966;2023-05-14T04:15:33;10.98;94.52
71254;HTU21D;59019;47.638;18.966;2023-05-14T04:18:00;11.05;94.38
71254;HTU21D;59019;47.638;18.966;2023-05-14T04:20:26;11.10;94.37
71254;HTU21D;59019;47.638;18.966;2023-05-14T04:22:52;11.14;93.75
71254;HTU21D;59019;47.638;18.966;2023-05-14T04:25:18;11.16;93.93
71254;HTU21D;59019;47.638;18.966;2023-05-14T04:27:44;11.15;93.80
71254;HTU21D;59019;47.638;18.966;2023-05-14T04:30:10;11.17;93.76
71254;HTU21D;59019;47.638;18.966;2023-05-14T04:32:36;11.26;93.82
71254;HTU21D;59019;47.638;18.966;2023-05-14T04:35:02;11.31;93.28
71254;HTU21D;59019;47.638;18.966;2023-05-14T04:37:28;11.33;93.48
71254;HTU21D;59019;47.638;18.966;2023-05-14T04:39:56;11.33;93.26
71254;HTU21D;59019;47.638;18.966;2023-05-14T04:42:21;11.26;93.36
71254;HTU21D;59019;47.638;18.966;2023-05-14T04:44:47;11.27;93.49
71254;HTU21D;59019;47.638;18.966;2023-05-14T04:47:12;11.38;93.47
71254;HTU21D;59019;47.638;18.966;2023-05-14T04:49:38;11.38;93.04
71254;HTU21D;59019;47.638;18.966;2023-05-14T04:52:05;11.44;92.76
71254;HTU21D;59019;47.638;18.966;2023-05-14T04:54:30;11.40;93.17
71254;HTU21D;59019;47.638;18.966;2023-05-14T04:56:56;11.33;93.15
71254;HTU21D;59019;47.638;18.966;2023-05-14T04:59:21;11.28;92.90
71254;HTU21D;59019;47.638;18.966;2023-05-14T05:01:47;11.38;92.58
71254;HTU21D;59019;47.638;18.966;2023-05-14T05:04:13;11.45;92.50
71254;HTU21D;59019;47.638;18.966;2023-05-14T05:06:38;11.38;92.56
71254;HTU21D;59019;47.638;18.966;2023-05-14T05:09:04;11.39;92.75
71254;HTU21D;59019;47.638;18.966;2023-05-14T05:11:29;11.43;92.35
71254;HTU21D;59019;47.638;18.966;2023-05-14T05:13:55;11.37;92.49
71254;HTU21D;59019;47.638;18.966;2023-05-14T05:16:20;11.19;93.30
71254;HTU21D;59019;47.638;18.966;2023-05-14T05:18:46;11.19;94.01
71254;HTU21D;59019;47.638;18.966;2023-05-14T05:21:11;11.29;93.06
71254;HTU21D;59019;47.638;18.966;2023-05-14T05:23:37;11.34;92.95
71254;HTU21D;59019;47.638;18.966;2023-05-14T05:26:02;11.36;92.54
71254;HTU21D;59019;47.638;18.966;2023-05-14T05:28:28;11.27;93.08
71254;HTU21D;59019;47.638;18.966;2023-05-14T05:30:53;11.24;93.45
71254;HTU21D;59019;47.638;18.966;2023-05-14T05:33:19;11.38;92.87
71254;HTU21D;59019;47.638;18.966;2023-05-14T05:35:45;11.38;92.82
71254;HTU21D;59019;47.638;18.966;2023-05-14T05:38:10;11.44;92.66
71254;HTU21D;59019;47.638;18.966;2023-05-14T05:40:36;11.53;92.16
71254;HTU21D;59019;47.638;18.966;2023-05-14T05:43:01;11.62;91.86
71254;HTU21D;59019;47.638;18.966;2023-05-14T05:45:27;11.58;91.82
71254;HTU21D;59019;47.638;18.966;2023-05-14T05:47:52;11.57;91.90
71254;HTU21D;59019;47.638;18.966;2023-05-14T05:50:19;11.63;94.30
71254;HTU21D;59019;47.638;18.966;2023-05-14T05:52:45;11.68;94.04
71254;HTU21D;59019;47.638;18.966;2023-05-14T05:55:10;11.75;92.54
71254;HTU21D;59019;47.638;18.966;2023-05-14T05:57:36;11.76;91.28
71254;HTU21D;59019;47.638;18.966;2023-05-14T06:00:02;11.79;90.86
71254;HTU21D;59019;47.638;18.966;2023-05-14T06:02:37;11.79;90.85
71254;HTU21D;59019;47.638;18.966;2023-05-14T06:05:02;11.81;90.90
71254;HTU21D;59019;47.638;18.966;2023-05-14T06:07:28;11.76;91.37
71254;HTU21D;59019;47.638;18.966;2023-05-14T06:09:53;11.79;91.63
71254;HTU21D;59019;47.638;18.966;2023-05-14T06:12:19;11.75;91.61
71254;HTU21D;59019;47.638;18.966;2023-05-14T06:14:45;11.76;91.79
71254;HTU21D;59019;47.638;18.966;2023-05-14T06:17:11;11.85;91.87
71254;HTU21D;59019;47.638;18.966;2023-05-14T06:19:36;11.84;91.93
71254;HTU21D;59019;47.638;18.966;2023-05-14T06:22:02;11.86;92.20
71254;HTU21D;59019;47.638;18.966;2023-05-14T06:24:28;11.90;92.55
71254;HTU21D;59019;47.638;18.966;2023-05-14T06:26:53;11.93;93.53
71254;HTU21D;59019;47.638;18.966;2023-05-14T06:29:19;12.03;97.29
71254;HTU21D;59019;47.638;18.966;2023-05-14T06:31:44;12.07;96.00
71254;HTU21D;59019;47.638;18.966;2023-05-14T06:34:10;12.00;94.01
71254;HTU21D;59019;47.638;18.966;2023-05-14T06:36:36;12.08;93.04
71254;HTU21D;59019;47.638;18.966;2023-05-14T06:39:02;12.12;92.90
71254;HTU21D;59019;47.638;18.966;2023-05-14T06:41:27;12.14;92.08
71254;HTU21D;59019;47.638;18.966;2023-05-14T06:43:53;12.17;92.17
71254;HTU21D;59019;47.638;18.966;2023-05-14T06:46:19;12.08;93.33
71254;HTU21D;59019;47.638;18.966;2023-05-14T06:48:45;12.16;92.42
71254;HTU21D;59019;47.638;18.966;2023-05-14T06:51:11;12.28;91.87
71254;HTU21D;59019;47.638;18.966;2023-05-14T06:53:37;12.25;92.62
71254;HTU21D;59019;47.638;18.966;2023-05-14T06:56:03;12.32;92.30
71254;HTU21D;59019;47.638;18.966;2023-05-14T06:58:29;12.30;91.85
71254;HTU21D;59019;47.638;18.966;2023-05-14T07:00:55;12.32;92.14
71254;HTU21D;59019;47.638;18.966;2023-05-14T07:03:20;12.38;91.65
71254;HTU21D;59019;47.638;18.966;2023-05-14T07:05:47;12.46;92.28
71254;HTU21D;59019;47.638;18.966;2023-05-14T07:08:12;12.51;91.34
71254;HTU21D;59019;47.638;18.966;2023-05-14T07:10:38;12.51;91.02
71254;HTU21D;59019;47.638;18.966;2023-05-14T07:13:04;12.69;91.53
71254;HTU21D;59019;47.638;18.966;2023-05-14T07:15:30;12.78;91.06
71254;HTU21D;59019;47.638;18.966;2023-05-14T07:17:55;12.96;91.89
71254;HTU21D;59019;47.638;18.966;2023-05-14T07:20:21;13.05;90.73
71254;HTU21D;59019;47.638;18.966;2023-05-14T07:22:48;13.15;89.92
71254;HTU21D;59019;47.638;18.966;2023-05-14T07:25:14;13.18;89.56
71254;HTU21D;59019;47.638;18.966;2023-05-14T07:27:40;13.10;89.53
71254;HTU21D;59019;47.638;18.966;2023-05-14T07:30:06;13.02;90.22
71254;HTU21D;59019;47.638;18.966;2023-05-14T07:32:32;13.29;89.95
71254;HTU21D;59019;47.638;18.966;2023-05-14T07:34:57;13.36;90.64
71254;HTU21D;59019;47.638;18.966;2023-05-14T07:37:23;13.56;89.85
71254;HTU21D;59019;47.638;18.966;2023-05-14T07:39:50;13.66;89.00
71254;HTU21D;59019;47.638;18.966;2023-05-14T07:42:16;13.75;87.69
71254;HTU21D;59019;47.638;18.966;2023-05-14T07:44:42;13.88;88.96
71254;HTU21D;59019;47.638;18.966;2023-05-14T07:47:08;13.98;88.30
71254;HTU21D;59019;47.638;18.966;2023-05-14T07:49:34;14.17;88.49
71254;HTU21D;59019;47.638;18.966;2023-05-14T07:51:59;14.34;88.23
71254;HTU21D;59019;47.638;18.966;2023-05-14T07:54:27;14.42;86.79
71254;HTU21D;59019;47.638;18.966;2023-05-14T07:56:52;14.35;86.91
71254;HTU21D;59019;47.638;18.966;2023-05-14T07:59:18;14.38;87.51
71254;HTU21D;59019;47.638;18.966;2023-05-14T08:01:43;14.54;86.49
71254;HTU21D;59019;47.638;18.966;2023-05-14T08:04:09;14.53;86.26
71254;HTU21D;59019;47.638;18.966;2023-05-14T08:06:39;14.55;85.82
71254;HTU21D;59019;47.638;18.966;2023-05-14T08:09:04;14.62;86.32
71254;HTU21D;59019;47.638;18.966;2023-05-14T08:11:31;14.55;87.27
71254;HTU21D;59019;47.638;18.966;2023-05-14T08:13:56;14.63;85.88
71254;HTU21D;59019;47.638;18.966;2023-05-14T08:16:22;14.43;86.90
71254;HTU21D;59019;47.638;18.966;2023-05-14T08:18:48;14.28;86.74
71254;HTU21D;59019;47.638;18.966;2023-05-14T08:21:13;14.44;87.24
71254;HTU21D;59019;47.638;18.966;2023-05-14T08:23:39;14.59;86.74
71254;HTU21D;59019;47.638;18.966;2023-05-14T08:26:04;14.72;87.00
71254;HTU21D;59019;47.638;18.966;2023-05-14T08:28:30;14.77;86.54
71254;HTU21D;59019;47.638;18.966;2023-05-14T08:30:55;14.75;86.48
71254;HTU21D;59019;47.638;18.966;2023-05-14T08:33:21;14.57;86.50
71254;HTU21D;59019;47.638;18.966;2023-05-14T08:35:46;14.66;86.38
71254;HTU21D;59019;47.638;18.966;2023-05-14T08:38:12;14.82;85.75
71254;HTU21D;59019;47.638;18.966;2023-05-14T08:40:39;14.58;86.64
71254;HTU21D;59019;47.638;18.966;2023-05-14T08:43:05;14.84;87.47
71254;HTU21D;59019;47.638;18.966;2023-05-14T08:45:32;15.00;86.78
71254;HTU21D;59019;47.638;18.966;2023-05-14T08:47:59;14.81;87.12
71254;HTU21D;59019;47.638;18.966;2023-05-14T08:50:29;15.12;87.31
71254;HTU21D;59019;47.638;18.966;2023-05-14T08:52:55;15.36;86.85
71254;HTU21D;59019;47.638;18.966;2023-05-14T08:55:21;15.38;85.34
71254;HTU21D;59019;47.638;18.966;2023-05-14T08:57:47;15.55;86.62
71254;HTU21D;59019;47.638;18.966;2023-05-14T09:00:13;14.93;86.84
71254;HTU21D;59019;47.638;18.966;2023-05-14T09:02:40;15.30;86.60
71254;HTU21D;59019;47.638;18.966;2023-05-14T09:05:07;15.00;88.02
71254;HTU21D;59019;47.638;18.966;2023-05-14T09:07:33;14.59;88.73
71254;HTU21D;59019;47.638;18.966;2023-05-14T09:10:00;14.58;89.15
71254;HTU21D;59019;47.638;18.966;2023-05-14T09:12:26;14.95;87.97
71254;HTU21D;59019;47.638;18.966;2023-05-14T09:14:52;14.92;87.47
71254;HTU21D;59019;47.638;18.966;2023-05-14T09:17:18;14.83;87.06
71254;HTU21D;59019;47.638;18.966;2023-05-14T09:19:45;14.71;88.13
71254;HTU21D;59019;47.638;18.966;2023-05-14T09:22:15;14.70;89.28
71254;HTU21D;59019;47.638;18.966;2023-05-14T09:24:41;14.78;87.97
71254;HTU21D;59019;47.638;18.966;2023-05-14T09:27:08;14.60;87.95
71254;HTU21D;59019;47.638;18.966;2023-05-14T09:29:34;14.50;88.02
71254;HTU21D;59019;47.638;18.966;2023-05-14T09:32:01;14.38;89.27
71254;HTU21D;59019;47.638;18.966;2023-05-14T09:34:33;14.60;89.17
71254;HTU21D;59019;47.638;18.966;2023-05-14T09:37:04;14.74;88.61
71254;HTU21D;59019;47.638;18.966;2023-05-14T09:39:30;14.80;89.35
71254;HTU21D;59019;47.638;18.966;2023-05-14T09:41:56;14.83;89.70
71254;HTU21D;59019;47.638;18.966;2023-05-14T09:44:22;15.01;89.16
71254;HTU21D;59019;47.638;18.966;2023-05-14T09:46:48;14.77;88.58
71254;HTU21D;59019;47.638;18.966;2023-05-14T09:49:15;14.55;89.66
71254;HTU21D;59019;47.638;18.966;2023-05-14T09:51:40;14.73;90.11
71254;HTU21D;59019;47.638;18.966;2023-05-14T09:54:06;14.96;90.28
71254;HTU21D;59019;47.638;18.966;2023-05-14T09:56:33;15.06;90.15
71254;HTU21D;59019;47.638;18.966;2023-05-14T09:58:59;15.18;88.57
71254;HTU21D;59019;47.638;18.966;2023-05-14T10:01:25;15.02;91.33
71254;HTU21D;59019;47.638;18.966;2023-05-14T10:03:52;15.03;89.58
71254;HTU21D;59019;47.638;18.966;2023-05-14T10:06:21;15.06;88.92
71254;HTU21D;59019;47.638;18.966;2023-05-14T10:08:48;14.74;90.80
71254;HTU21D;59019;47.638;18.966;2023-05-14T10:11:24;15.06;90.78
71254;HTU21D;59019;47.638;18.966;2023-05-14T10:14:02;14.97;90.34
71254;HTU21D;59019;47.638;18.966;2023-05-14T10:16:33;14.87;90.93
71254;HTU21D;59019;47.638;18.966;2023-05-14T10:19:07;14.95;90.40
71254;HTU21D;59019;47.638;18.966;2023-05-14T10:21:38;14.65;92.72
71254;HTU21D;59019;47.638;18.966;2023-05-14T10:24:05;14.70;92.71
71254;HTU21D;59019;47.638;18.966;2023-05-14T10:26:33;14.47;93.52
71254;HTU21D;59019;47.638;18.966;2023-05-14T10:28:59;14.57;94.74
71254;HTU21D;59019;47.638;18.966;2023-05-14T10:31:50;15.13;93.75
71254;HTU21D;59019;47.638;18.966;2023-05-14T10:37:05;16.11;90.85
71254;HTU21D;59019;47.638;18.966;2023-05-14T10:42:25;16.81;88.39
71254;HTU21D;59019;47.638;18.966;2023-05-14T10:45:04;16.80;87.28
71254;HTU21D;59019;47.638;18.966;2023-05-14T10:47:32;16.65;87.67
71254;HTU21D;59019;47.638;18.966;2023-05-14T10:50:00;16.56;87.29
71254;HTU21D;59019;47.638;18.966;2023-05-14T10:52:26;16.24;87.61
71254;HTU21D;59019;47.638;18.966;2023-05-14T10:54:59;16.21;88.06
71254;HTU21D;59019;47.638;18.966;2023-05-14T10:57:30;16.12;88.35
71254;HTU21D;59019;47.638;18.966;2023-05-14T10:59:58;16.04;88.77
71254;HTU21D;59019;47.638;18.966;2023-05-14T11:02:32;15.62;89.96
71254;HTU21D;59019;47.638;18.966;2023-05-14T11:05:05;15.60;89.83
71254;HTU21D;59019;47.638;18.966;2023-05-14T11:07:37;15.58;89.57
71254;HTU21D;59019;47.638;18.966;2023-05-14T11:10:05;15.44;89.15
71254;HTU21D;59019;47.638;18.966;2023-05-14T11:12:36;15.36;90.44
71254;HTU21D;59019;47.638;18.966;2023-05-14T11:15:07;15.26;90.41
71254;HTU21D;59019;47.638;18.966;2023-05-14T11:17:37;15.17;90.50
71254;HTU21D;59019;47.638;18.966;2023-05-14T11:20:04;15.15;91.02
71254;HTU21D;59019;47.638;18.966;2023-05-14T11:22:30;14.45;93.91
71254;HTU21D;59019;47.638;18.966;2023-05-14T11:24:56;14.62;93.30
71254;HTU21D;59019;47.638;18.966;2023-05-14T11:27:22;14.74;93.36
71254;HTU21D;59019;47.638;18.966;2023-05-14T11:29:51;14.54;93.07
71254;HTU21D;59019;47.638;18.966;2023-05-14T11:32:17;14.12;95.04
71254;HTU21D;59019;47.638;18.966;2023-05-14T11:34:43;14.08;95.04
71254;HTU21D;59019;47.638;18.966;2023-05-14T11:37:10;13.80;96.09
71254;HTU21D;59019;47.638;18.966;2023-05-14T11:39:38;13.95;96.10
71254;HTU21D;59019;47.638;18.966;2023-05-14T11:42:08;13.95;96.65
71254;HTU21D;59019;47.638;18.966;2023-05-14T11:44:37;13.97;96.26
71254;HTU21D;59019;47.638;18.966;2023-05-14T11:47:03;13.85;96.87
71254;HTU21D;59019;47.638;18.966;2023-05-14T11:49:30;13.76;97.61
71254;HTU21D;59019;47.638;18.966;2023-05-14T11:52:01;13.75;98.51
71254;HTU21D;59019;47.638;18.966;2023-05-14T11:54:27;13.83;97.23
71254;HTU21D;59019;47.638;18.966;2023-05-14T11:56:57;13.77;97.81
71254;HTU21D;59019;47.638;18.966;2023-05-14T11:59:24;13.76;98.32
71254;HTU21D;59019;47.638;18.966;2023-05-14T12:01:50;13.94;97.26
71254;HTU21D;59019;47.638;18.966;2023-05-14T12:04:18;14.14;96.86
71254;HTU21D;59019;47.638;18.966;2023-05-14T12:06:49;13.89;97.07
71254;HTU21D;59019;47.638;18.966;2023-05-14T12:09:19;14.11;97.02
71254;HTU21D;59019;47.638;18.966;2023-05-14T12:11:46;13.79;97.72
71254;HTU21D;59019;47.638;18.966;2023-05-14T12:14:16;13.46;98.53
71254;HTU21D;59019;47.638;18.966;2023-05-14T12:16:43;13.54;99.04
71254;HTU21D;59019;47.638;18.966;2023-05-14T12:19:10;13.83;98.58
71254;HTU21D;59019;47.638;18.966;2023-05-14T12:21:37;13.99;98.19
71254;HTU21D;59019;47.638;18.966;2023-05-14T12:24:02;13.99;98.23
71254;HTU21D;59019;47.638;18.966;2023-05-14T12:26:32;14.09;97.65
71254;HTU21D;59019;47.638;18.966;2023-05-14T12:29:02;13.70;101.00
71254;HTU21D;59019;47.638;18.966;2023-05-14T12:31:32;13.81;99.18
71254;HTU21D;59019;47.638;18.966;2023-05-14T12:33:58;13.84;99.00
71254;HTU21D;59019;47.638;18.966;2023-05-14T12:36:24;13.80;98.80
71254;HTU21D;59019;47.638;18.966;2023-05-14T12:38:59;13.24;102.97
71254;HTU21D;59019;47.638;18.966;2023-05-14T12:41:31;13.33;101.68
71254;HTU21D;59019;47.638;18.966;2023-05-14T12:43:58;13.49;102.32
71254;HTU21D;59019;47.638;18.966;2023-05-14T12:46:24;13.62;101.60
71254;HTU21D;59019;47.638;18.966;2023-05-14T12:48:52;13.52;101.30
71254;HTU21D;59019;47.638;18.966;2023-05-14T12:51:18;13.67;100.49
71254;HTU21D;59019;47.638;18.966;2023-05-14T12:53:44;13.60;101.23
71254;HTU21D;59019;47.638;18.966;2023-05-14T12:56:09;13.68;100.64
71254;HTU21D;59019;47.638;18.966;2023-05-14T12:58:35;13.73;101.05
71254;HTU21D;59019;47.638;18.966;2023-05-14T13:01:01;13.78;100.73
71254;HTU21D;59019;47.638;18.966;2023-05-14T13:03:26;13.74;100.93
71254;HTU21D;59019;47.638;18.966;2023-05-14T13:05:52;13.67;100.82
71254;HTU21D;59019;47.638;18.966;2023-05-14T13:08:19;13.71;100.19
71254;HTU21D;59019;47.638;18.966;2023-05-14T13:10:46;13.63;100.51
71254;HTU21D;59019;47.638;18.966;2023-05-14T13:13:14;13.33;100.63
71254;HTU21D;59019;47.638;18.966;2023-05-14T13:15:40;13.25;101.77
71254;HTU21D;59019;47.638;18.966;2023-05-14T13:18:05;13.35;101.03
71254;HTU21D;59019;47.638;18.966;2023-05-14T13:20:33;13.15;101.50
71254;HTU21D;59019;47.638;18.966;2023-05-14T13:22:58;13.33;100.91
71254;HTU21D;59019;47.638;18.966;2023-05-14T13:25:24;13.37;100.80
71254;HTU21D;59019;47.638;18.966;2023-05-14T13:27:49;13.48;100.06
71254;HTU21D;59019;47.638;18.966;2023-05-14T13:30:19;13.48;100.05
71254;HTU21D;59019;47.638;18.966;2023-05-14T13:32:44;13.52;99.77
71254;HTU21D;59019;47.638;18.966;2023-05-14T13:35:10;13.35;99.55
71254;HTU21D;59019;47.638;18.966;2023-05-14T13:37:36;13.33;100.50
71254;HTU21D;59019;47.638;18.966;2023-05-14T13:40:02;13.23;101.36
71254;HTU21D;59019;47.638;18.966;2023-05-14T13:42:36;12.92;103.07
71254;HTU21D;59019;47.638;18.966;2023-05-14T13:45:04;13.01;102.73
71254;HTU21D;59019;47.638;18.966;2023-05-14T13:47:30;13.02;102.62
71254;HTU21D;59019;47.638;18.966;2023-05-14T13:49:55;13.11;102.06
71254;HTU21D;59019;47.638;18.966;2023-05-14T13:52:21;13.14;101.80
71254;HTU21D;59019;47.638;18.966;2023-05-14T13:54:47;12.93;101.91
71254;HTU21D;59019;47.638;18.966;2023-05-14T13:57:13;12.78;103.14
71254;HTU21D;59019;47.638;18.966;2023-05-14T13:59:39;12.65;106.31
71254;HTU21D;59019;47.638;18.966;2023-05-14T14:02:05;12.66;106.43
71254;HTU21D;59019;47.638;18.966;2023-05-14T14:04:31;12.57;108.95
71254;HTU21D;59019;47.638;18.966;2023-05-14T14:06:58;12.40;109.94
71254;HTU21D;59019;47.638;18.966;2023-05-14T14:09:23;12.47;109.92
71254;HTU21D;59019;47.638;18.966;2023-05-14T14:11:49;12.41;112.38
71254;HTU21D;59019;47.638;18.966;2023-05-14T14:14:15;12.55;110.19
71254;HTU21D;59019;47.638;18.966;2023-05-14T14:16:41;12.55;109.53
71254;HTU21D;59019;47.638;18.966;2023-05-14T14:19:07;12.63;108.43
71254;HTU21D;59019;47.638;18.966;2023-05-14T14:21:33;12.47;113.78
71254;HTU21D;59019;47.638;18.966;2023-05-14T14:24:02;12.38;115.74
71254;HTU21D;59019;47.638;18.966;2023-05-14T14:26:28;12.27;-6.00
71254;HTU21D;59019;47.638;18.966;2023-05-14T14:28:53;12.38;115.29
71254;HTU21D;59019;47.638;18.966;2023-05-14T14:31:20;12.47;114.18
71254;HTU21D;59019;47.638;18.966;2023-05-14T14:33:46;12.52;115.35
71254;HTU21D;59019;47.638;18.966;2023-05-14T14:36:12;12.42;117.99
71254;HTU21D;59019;47.638;18.966;2023-05-14T14:38:37;12.36;-4.42
71254;HTU21D;59019;47.638;18.966;2023-05-14T14:41:06;12.49;118.26
71254;HTU21D;59019;47.638;18.966;2023-05-14T14:43:36;12.51;117.54
71254;HTU21D;59019;47.638;18.966;2023-05-14T14:46:02;12.53;118.30
71254;HTU21D;59019;47.638;18.966;2023-05-14T14:48:32;12.51;117.16
71254;HTU21D;59019;47.638;18.966;2023-05-14T14:50:59;12.42;117.94
71254;HTU21D;59019;47.638;18.966;2023-05-14T14:53:28;12.43;-3.51
71254;HTU21D;59019;47.638;18.966;2023-05-14T14:55:54;12.38;-2.79
71254;HTU21D;59019;47.638;18.966;2023-05-14T14:58:20;12.40;0.45
71254;HTU21D;59019;47.638;18.966;2023-05-14T15:00:46;12.42;-2.25
71254;HTU21D;59019;47.638;18.966;2023-05-14T15:03:12;12.40;-0.58
71254;HTU21D;59019;47.638;18.966;2023-05-14T15:05:39;12.32;2.01
71254;HTU21D;59019;47.638;18.966;2023-05-14T15:08:04;12.33;2.70
71254;HTU21D;59019;47.638;18.966;2023-05-14T15:10:30;12.26;4.00